createdAt,value
2023-04-13T00:01:29.023Z,9.65
2023-04-13T00:03:58.651Z,9.65
2023-04-13T00:06:28.793Z,9.64
2023-04-13T00:08:58.830Z,9.62
2023-04-13T00:11:28.252Z,9.60
2023-04-13T00:13:59.053Z,9.60
2023-04-13T00:16:31.768Z,9.64
2023-04-13T00:18:59.779Z,9.70
2023-04-13T00:21:27.903Z,9.77
2023-04-13T00:24:01.616Z,9.83
2023-04-13T00:26:30.491Z,9.90
2023-04-13T00:28:58.577Z,9.91
2023-04-13T00:31:26.677Z,9.90
2023-04-13T00:33:55.766Z,9.94
2023-04-13T00:36:24.824Z,9.94
2023-04-13T00:38:54.565Z,9.94
2023-04-13T00:41:24.272Z,9.95
2023-04-13T00:43:52.745Z,9.91
2023-04-13T00:46:21.104Z,9.83
2023-04-13T00:48:55.694Z,9.77
2023-04-13T00:51:23.558Z,9.76
2023-04-13T00:53:51.548Z,9.76
2023-04-13T00:56:23.316Z,9.73
2023-04-13T00:58:51.921Z,9.70
2023-04-13T01:01:19.943Z,9.66
2023-04-13T01:03:49.721Z,9.63
2023-04-13T01:06:21.388Z,9.59
2023-04-13T01:08:53.326Z,9.56
2023-04-13T01:11:33.172Z,9.56
2023-04-13T01:14:09.292Z,9.57
2023-04-13T01:16:40.612Z,9.60
2023-04-13T01:19:11.359Z,9.57
2023-04-13T01:21:39.275Z,9.57
2023-04-13T01:24:26.675Z,9.57
2023-04-13T01:26:58.539Z,9.53
2023-04-13T01:29:26.385Z,9.53
2023-04-13T01:31:54.420Z,9.56
2023-04-13T01:34:23.340Z,9.55
2023-04-13T01:36:51.255Z,9.51
2023-04-13T01:39:20.221Z,9.51
2023-04-13T01:41:49.379Z,9.58
2023-04-13T01:44:18.010Z,9.63
2023-04-13T01:46:47.686Z,9.60
2023-04-13T01:49:39.033Z,9.58
2023-04-13T01:52:41.060Z,9.57
2023-04-13T01:55:12.535Z,9.55
2023-04-13T01:57:41.502Z,9.52
2023-04-13T02:00:12.596Z,9.50
2023-04-13T02:02:45.343Z,9.47
2023-04-13T02:05:13.574Z,9.43
2023-04-13T02:07:42.631Z,9.42
2023-04-13T02:10:12.030Z,9.43
2023-04-13T02:12:41.761Z,9.46
2023-04-13T02:15:10.722Z,9.46
2023-04-13T02:17:42.515Z,9.51
2023-04-13T02:20:14.291Z,9.55
2023-04-13T02:22:48.124Z,9.60
2023-04-13T02:25:18.938Z,9.69
2023-04-13T02:27:47.447Z,9.78
2023-04-13T02:30:17.851Z,9.86
2023-04-13T02:33:00.189Z,9.91
2023-04-13T02:35:28.954Z,9.95
2023-04-13T02:37:58.156Z,9.90
2023-04-13T02:40:28.507Z,9.79
2023-04-13T02:42:59.994Z,9.69
2023-04-13T02:45:29.372Z,9.64
2023-04-13T02:48:05.629Z,9.58
2023-04-13T02:50:35.008Z,9.58
2023-04-13T02:53:07.890Z,9.59
2023-04-13T02:55:36.691Z,9.60
2023-04-13T02:58:08.325Z,9.66
2023-04-13T03:00:37.566Z,9.73
2023-04-13T03:03:19.220Z,9.79
2023-04-13T03:05:50.823Z,9.88
2023-04-13T03:08:21.683Z,9.91
2023-04-13T03:11:09.566Z,9.88
2023-04-13T03:13:41.060Z,9.76
2023-04-13T03:16:12.365Z,9.67
2023-04-13T03:18:41.658Z,9.59
2023-04-13T03:21:10.476Z,9.57
2023-04-13T03:23:44.149Z,9.53
2023-04-13T03:26:13.696Z,9.50
2023-04-13T03:28:41.480Z,9.55
2023-04-13T03:31:09.753Z,9.65
2023-04-13T03:33:39.628Z,9.73
2023-04-13T03:36:08.550Z,9.82
2023-04-13T03:38:37.702Z,9.88
2023-04-13T03:41:06.115Z,9.88
2023-04-13T03:43:34.275Z,9.87
2023-04-13T03:46:07.861Z,9.91
2023-04-13T03:48:36.802Z,9.96
2023-04-13T03:51:06.641Z,10.03
2023-04-13T03:53:46.366Z,10.08
2023-04-13T03:56:16.826Z,10.13
2023-04-13T03:58:46.664Z,10.13
2023-04-13T04:01:15.574Z,10.03
2023-04-13T04:03:50.109Z,9.91
2023-04-13T04:06:18.710Z,9.80
2023-04-13T04:08:53.000Z,9.75
2023-04-13T04:11:35.333Z,9.75
2023-04-13T04:14:04.179Z,9.78
2023-04-13T04:16:35.146Z,9.84
2023-04-13T04:19:08.906Z,9.83
2023-04-13T04:21:38.284Z,9.78
2023-04-13T04:24:12.399Z,9.79
2023-04-13T04:26:41.657Z,9.79
2023-04-13T04:29:13.867Z,9.80
2023-04-13T04:31:45.002Z,9.77
2023-04-13T04:34:16.905Z,9.72
2023-04-13T04:36:52.630Z,9.71
2023-04-13T04:39:23.780Z,9.74
2023-04-13T04:42:04.125Z,9.77
2023-04-13T04:44:34.258Z,9.82
2023-04-13T04:47:06.013Z,9.82
2023-04-13T04:49:37.891Z,9.83
2023-04-13T04:52:05.627Z,9.82
2023-04-13T04:54:34.016Z,9.77
2023-04-13T04:57:02.403Z,9.69
2023-04-13T04:59:32.834Z,9.65
2023-04-13T05:02:03.906Z,9.62
2023-04-13T05:04:33.586Z,9.60
2023-04-13T05:07:02.704Z,9.58
2023-04-13T05:09:34.173Z,9.57
2023-04-13T05:12:02.171Z,9.57
2023-04-13T05:14:31.394Z,9.57
2023-04-13T05:17:00.793Z,9.57
2023-04-13T05:19:32.571Z,9.57
2023-04-13T05:22:11.912Z,9.60
2023-04-13T05:24:46.925Z,9.62
2023-04-13T05:27:16.078Z,9.62
2023-04-13T05:29:47.907Z,9.62
2023-04-13T05:32:18.397Z,9.58
2023-04-13T05:34:46.920Z,9.57
2023-04-13T05:37:21.548Z,9.58
2023-04-13T05:39:50.139Z,9.59
2023-04-13T05:42:20.005Z,9.58
2023-04-13T05:44:47.867Z,9.61
2023-04-13T05:47:18.999Z,9.62
2023-04-13T05:49:47.440Z,9.64
2023-04-13T05:52:16.307Z,9.65
2023-04-13T05:54:46.394Z,9.66
2023-04-13T05:57:17.004Z,9.69
2023-04-13T05:59:47.413Z,9.73
2023-04-13T06:02:20.880Z,9.77
2023-04-13T06:04:53.826Z,9.81
2023-04-13T06:07:22.691Z,9.87
2023-04-13T06:09:50.965Z,9.95
2023-04-13T06:12:21.874Z,10.05
2023-04-13T06:14:50.313Z,10.11
2023-04-13T06:17:18.421Z,10.17
2023-04-13T06:19:46.678Z,10.18
2023-04-13T06:22:14.529Z,10.17
2023-04-13T06:24:42.634Z,10.23
2023-04-13T06:27:11.492Z,10.30
2023-04-13T06:29:41.620Z,10.39
2023-04-13T06:32:10.841Z,10.47
2023-04-13T06:34:38.797Z,10.50
2023-04-13T06:37:08.011Z,10.49
2023-04-13T06:39:44.429Z,10.45
2023-04-13T06:42:13.724Z,10.46
2023-04-13T06:45:01.693Z,10.48
2023-04-13T06:47:34.756Z,10.47
2023-04-13T06:50:04.030Z,10.48
2023-04-13T06:52:33.645Z,10.52
2023-04-13T06:55:04.412Z,10.55
2023-04-13T06:57:35.528Z,10.57
2023-04-13T07:00:15.459Z,10.58
2023-04-13T07:02:53.713Z,10.62
2023-04-13T07:05:22.329Z,10.66
2023-04-13T07:07:51.730Z,10.70
2023-04-13T07:10:20.620Z,10.70
2023-04-13T07:12:48.596Z,10.70
2023-04-13T07:15:19.025Z,10.72
2023-04-13T07:17:46.905Z,10.77
2023-04-13T07:20:17.605Z,10.81
2023-04-13T07:22:47.915Z,10.86
2023-04-13T07:25:16.183Z,10.92
2023-04-13T07:27:45.115Z,10.98
2023-04-13T07:30:14.030Z,11.05
2023-04-13T07:32:45.535Z,11.04
2023-04-13T07:35:13.447Z,11.06
2023-04-13T07:37:42.507Z,11.11
2023-04-13T07:40:11.838Z,11.17
2023-04-13T07:42:41.363Z,11.26
2023-04-13T07:45:11.094Z,11.33
2023-04-13T07:47:39.452Z,11.36
2023-04-13T07:50:09.716Z,11.40
2023-04-13T07:52:37.843Z,11.48
2023-04-13T07:55:07.070Z,11.54
2023-04-13T07:57:39.048Z,11.55
2023-04-13T08:00:08.348Z,11.59
2023-04-13T08:02:42.405Z,11.66
2023-04-13T08:05:14.417Z,11.69
2023-04-13T08:07:46.692Z,11.67
2023-04-13T08:10:16.539Z,11.66
2023-04-13T08:12:45.045Z,11.67
2023-04-13T08:15:19.838Z,11.74
2023-04-13T08:17:49.262Z,11.75
2023-04-13T08:20:18.666Z,11.73
2023-04-13T08:22:47.632Z,11.76
2023-04-13T08:25:15.624Z,11.72
2023-04-13T08:27:44.251Z,11.68
2023-04-13T08:30:14.587Z,11.67
2023-04-13T08:32:58.282Z,11.73
2023-04-13T08:35:26.721Z,11.76
2023-04-13T08:37:54.636Z,11.78
2023-04-13T08:40:23.108Z,11.79
2023-04-13T08:42:52.078Z,11.78
2023-04-13T08:45:19.984Z,11.80
2023-04-13T08:47:50.678Z,11.89
2023-04-13T08:50:20.663Z,11.91
2023-04-13T08:52:54.201Z,11.94
2023-04-13T08:55:23.466Z,11.98
2023-04-13T08:57:52.058Z,11.98
2023-04-13T09:00:22.961Z,11.98
2023-04-13T09:03:04.871Z,11.99
2023-04-13T09:05:39.032Z,11.98
2023-04-13T09:08:08.359Z,12.02
2023-04-13T09:10:41.243Z,12.10
2023-04-13T09:13:11.255Z,12.18
2023-04-13T09:15:41.084Z,12.22
2023-04-13T09:18:30.088Z,12.21
2023-04-13T09:21:08.276Z,12.16
2023-04-13T09:23:38.229Z,12.14
2023-04-13T09:26:09.859Z,12.17
2023-04-13T09:28:46.873Z,12.19
2023-04-13T09:31:15.718Z,12.21
2023-04-13T09:33:47.318Z,12.24
2023-04-13T09:36:17.769Z,12.25
2023-04-13T09:38:53.488Z,12.26
2023-04-13T09:41:37.437Z,12.27
2023-04-13T09:44:17.066Z,12.30
2023-04-13T09:46:46.056Z,12.30
2023-04-13T09:49:13.984Z,12.29
2023-04-13T09:51:44.056Z,12.26
2023-04-13T09:54:12.037Z,12.27
2023-04-13T09:56:45.414Z,12.30
2023-04-13T09:59:18.486Z,12.34
2023-04-13T10:01:46.837Z,12.37
2023-04-13T10:04:14.943Z,12.39
2023-04-13T10:06:46.685Z,12.40
2023-04-13T10:09:15.488Z,12.42
2023-04-13T10:11:49.877Z,12.42
2023-04-13T10:14:25.237Z,12.42
2023-04-13T10:17:13.843Z,12.39
2023-04-13T10:19:46.434Z,12.40
2023-04-13T10:22:14.672Z,12.42
2023-04-13T10:24:46.808Z,12.45
2023-04-13T10:27:15.693Z,12.47
2023-04-13T10:29:43.428Z,12.50
2023-04-13T10:32:21.484Z,12.52
2023-04-13T10:34:49.272Z,12.55
2023-04-13T10:37:19.500Z,12.60
2023-04-13T10:39:48.345Z,12.69
2023-04-13T10:42:17.903Z,12.72
2023-04-13T10:44:51.136Z,12.78
2023-04-13T10:47:22.142Z,12.83
2023-04-13T10:49:50.699Z,12.89
2023-04-13T10:52:18.805Z,12.92
2023-04-13T10:54:47.268Z,12.96
2023-04-13T10:57:21.204Z,12.98
2023-04-13T10:59:59.196Z,12.97
2023-04-13T11:02:31.835Z,12.90
2023-04-13T11:05:01.310Z,12.89
2023-04-13T11:07:29.843Z,12.92
2023-04-13T11:10:03.973Z,12.96
2023-04-13T11:12:32.834Z,12.98
2023-04-13T11:15:03.845Z,12.95
2023-04-13T11:17:33.246Z,12.91
2023-04-13T11:20:02.271Z,12.87
2023-04-13T11:22:35.630Z,12.87
2023-04-13T11:25:07.322Z,12.89
2023-04-13T11:27:35.358Z,12.86
2023-04-13T11:30:07.553Z,12.85
2023-04-13T11:32:38.948Z,12.87
2023-04-13T11:35:10.279Z,12.87
2023-04-13T11:37:39.488Z,12.88
2023-04-13T11:40:14.521Z,12.90
2023-04-13T11:42:42.998Z,12.94
2023-04-13T11:45:11.855Z,12.95
2023-04-13T11:47:39.744Z,12.94
2023-04-13T11:50:11.245Z,12.94
2023-04-13T11:52:39.482Z,12.96
2023-04-13T11:55:19.504Z,12.97
2023-04-13T11:57:50.392Z,13.00
2023-04-13T12:00:24.669Z,13.02
2023-04-13T12:05:26.179Z,12.97
2023-04-13T12:07:55.104Z,12.92
2023-04-13T12:10:38.242Z,12.88
2023-04-13T12:16:05.406Z,13.04
2023-04-13T12:18:43.700Z,13.16
2023-04-13T12:21:16.365Z,13.22
2023-04-13T12:23:52.825Z,13.21
2023-04-13T12:26:59.321Z,13.17
2023-04-13T12:29:09.183Z,13.16
2023-04-13T12:31:40.086Z,13.13
2023-04-13T12:34:08.361Z,13.15
2023-04-13T12:36:36.963Z,13.14
2023-04-13T12:39:05.009Z,13.14
2023-04-13T12:41:33.211Z,13.17
2023-04-13T12:44:01.393Z,13.16
2023-04-13T12:46:29.721Z,13.10
2023-04-13T12:48:58.203Z,13.06
2023-04-13T12:51:26.734Z,13.03
2023-04-13T12:53:54.997Z,12.96
2023-04-13T12:56:24.532Z,12.87
2023-04-13T12:58:52.600Z,12.75
2023-04-13T13:01:21.913Z,12.65
2023-04-13T13:03:51.615Z,12.61
2023-04-13T13:06:19.678Z,12.59
2023-04-13T13:08:47.551Z,12.55
2023-04-13T13:11:15.670Z,12.50
2023-04-13T13:13:44.600Z,12.50
2023-04-13T13:16:14.231Z,12.49
2023-04-13T13:18:51.229Z,12.46
2023-04-13T13:21:29.429Z,12.40
2023-04-13T13:23:57.248Z,12.32
2023-04-13T13:26:28.903Z,12.25
2023-04-13T13:29:04.109Z,12.17
2023-04-13T13:31:32.130Z,12.10
2023-04-13T13:34:00.174Z,12.02
2023-04-13T13:36:30.608Z,12.00
2023-04-13T13:39:05.338Z,12.00
2023-04-13T13:41:33.447Z,12.00
2023-04-13T13:44:01.235Z,12.01
2023-04-13T13:46:30.060Z,12.03
2023-04-13T13:48:58.660Z,12.01
2023-04-13T13:51:37.782Z,11.98
2023-04-13T13:54:07.022Z,12.02
2023-04-13T13:56:34.882Z,12.05
2023-04-13T13:59:04.777Z,12.05
2023-04-13T14:01:32.978Z,12.04
2023-04-13T14:04:02.086Z,12.06
2023-04-13T14:06:32.851Z,12.09
2023-04-13T14:09:01.538Z,12.12
2023-04-13T14:11:29.959Z,12.16
2023-04-13T14:14:01.587Z,12.16
2023-04-13T14:16:36.366Z,12.16
2023-04-13T14:19:04.591Z,12.12
2023-04-13T14:21:33.527Z,12.12
2023-04-13T14:24:05.163Z,12.12
2023-04-13T14:26:36.415Z,12.12
2023-04-13T14:29:04.686Z,12.11
2023-04-13T14:31:37.100Z,12.10
2023-04-13T14:34:05.600Z,12.05
2023-04-13T14:36:33.626Z,11.97
2023-04-13T14:39:02.157Z,11.90
2023-04-13T14:41:30.971Z,11.87
2023-04-13T14:43:58.943Z,11.84
2023-04-13T14:46:32.614Z,11.78
2023-04-13T14:49:01.541Z,11.72
2023-04-13T14:51:31.857Z,11.72
2023-04-13T14:54:01.001Z,11.69
2023-04-13T14:56:29.956Z,11.65
2023-04-13T14:58:58.105Z,11.62
2023-04-13T15:01:26.488Z,11.60
2023-04-13T15:03:56.104Z,11.61
2023-04-13T15:06:25.392Z,11.61
2023-04-13T15:08:54.292Z,11.59
2023-04-13T15:11:27.633Z,11.53
2023-04-13T15:13:55.418Z,11.47
2023-04-13T15:16:23.718Z,11.43
2023-04-13T15:18:51.709Z,11.40
2023-04-13T15:21:20.805Z,11.39
2023-04-13T15:23:49.015Z,11.38
2023-04-13T15:26:18.320Z,11.39
2023-04-13T15:28:48.666Z,11.38
2023-04-13T15:31:16.528Z,11.36
2023-04-13T15:33:44.331Z,11.36
2023-04-13T15:36:13.071Z,11.36
2023-04-13T15:38:41.472Z,11.38
2023-04-13T15:41:10.199Z,11.41
2023-04-13T15:43:41.164Z,11.40
2023-04-13T15:46:09.172Z,11.40
2023-04-13T15:48:38.454Z,11.42
2023-04-13T15:51:06.581Z,11.45
2023-04-13T15:53:35.253Z,11.45
2023-04-13T15:56:03.686Z,11.44
2023-04-13T15:58:31.674Z,11.43
2023-04-13T16:01:06.224Z,11.39
2023-04-13T16:03:35.771Z,11.37
2023-04-13T16:06:04.087Z,11.37
2023-04-13T16:08:32.620Z,11.32
2023-04-13T16:11:01.562Z,11.29
2023-04-13T16:13:47.257Z,11.28
2023-04-13T16:16:23.823Z,11.26
2023-04-13T16:18:58.948Z,11.23
2023-04-13T16:21:28.346Z,11.20
2023-04-13T16:23:57.180Z,11.18
2023-04-13T16:26:25.014Z,11.18
2023-04-13T16:28:53.573Z,11.14
2023-04-13T16:31:21.476Z,11.10
2023-04-13T16:33:49.760Z,11.08
2023-04-13T16:36:17.671Z,11.07
2023-04-13T16:38:46.023Z,11.06
2023-04-13T16:41:14.086Z,11.04
2023-04-13T16:43:42.123Z,10.98
2023-04-13T16:46:12.176Z,10.99
2023-04-13T16:48:41.145Z,10.97
2023-04-13T16:51:09.239Z,10.95
2023-04-13T16:53:44.112Z,10.96
2023-04-13T16:56:11.928Z,10.95
2023-04-13T16:58:40.055Z,10.93
2023-04-13T17:01:12.485Z,10.91
2023-04-13T17:03:41.623Z,10.90
2023-04-13T17:06:09.526Z,10.89
2023-04-13T17:08:38.440Z,10.87
2023-04-13T17:11:07.240Z,10.85
2023-04-13T17:13:36.611Z,10.84
2023-04-13T17:16:07.911Z,10.83
2023-04-13T17:18:38.250Z,10.82
2023-04-13T17:21:06.597Z,10.81
2023-04-13T17:23:34.666Z,10.80
2023-04-13T17:26:07.990Z,10.80
2023-04-13T17:28:36.107Z,10.80
2023-04-13T17:31:03.897Z,10.79
2023-04-13T17:33:32.426Z,10.80
2023-04-13T17:36:00.431Z,10.80
2023-04-13T17:38:28.411Z,10.79
2023-04-13T17:40:56.398Z,10.78
2023-04-13T17:43:24.278Z,10.77
2023-04-13T17:45:52.253Z,10.76
2023-04-13T17:48:23.945Z,10.75
2023-04-13T17:50:51.681Z,10.74
2023-04-13T17:53:19.617Z,10.72
2023-04-13T17:55:53.141Z,10.71
2023-04-13T17:58:22.156Z,10.71
2023-04-13T18:00:51.495Z,10.71
2023-04-13T18:03:39.644Z,10.74
2023-04-13T18:06:09.040Z,10.75
2023-04-13T18:08:37.408Z,10.79
2023-04-13T18:11:09.886Z,10.80
2023-04-13T18:13:39.894Z,10.79
2023-04-13T18:16:11.734Z,10.74
2023-04-13T18:18:41.333Z,10.64
2023-04-13T18:21:19.672Z,10.58
2023-04-13T18:23:48.090Z,10.57
2023-04-13T18:26:16.428Z,10.58
2023-04-13T18:28:44.905Z,10.58
2023-04-13T18:31:13.632Z,10.56
2023-04-13T18:33:42.153Z,10.56
2023-04-13T18:36:09.991Z,10.56
2023-04-13T18:38:42.865Z,10.52
2023-04-13T18:41:11.044Z,10.45
2023-04-13T18:43:39.719Z,10.42
2023-04-13T18:46:08.152Z,10.40
2023-04-13T18:48:36.618Z,10.39
2023-04-13T18:51:09.903Z,10.39
2023-04-13T18:53:38.772Z,10.41
2023-04-13T18:56:06.632Z,10.39
2023-04-13T18:58:35.537Z,10.37
2023-04-13T19:01:03.438Z,10.35
2023-04-13T19:03:32.724Z,10.34
2023-04-13T19:06:01.282Z,10.36
2023-04-13T19:08:33.613Z,10.36
2023-04-13T19:11:01.827Z,10.36
2023-04-13T19:13:30.033Z,10.34
2023-04-13T19:16:04.545Z,10.32
2023-04-13T19:18:36.319Z,10.28
2023-04-13T19:21:06.569Z,10.25
2023-04-13T19:23:38.929Z,10.26
2023-04-13T19:26:08.383Z,10.25
2023-04-13T19:28:37.558Z,10.24
2023-04-13T19:31:05.904Z,10.22
2023-04-13T19:33:42.548Z,10.23
2023-04-13T19:36:10.445Z,10.24
2023-04-13T19:38:38.260Z,10.25
2023-04-13T19:41:06.215Z,10.26
2023-04-13T19:43:34.850Z,10.25
2023-04-13T19:46:02.701Z,10.26
2023-04-13T19:48:32.240Z,10.31
2023-04-13T19:51:00.466Z,10.34
2023-04-13T19:53:32.632Z,10.31
2023-04-13T19:56:01.429Z,10.27
2023-04-13T19:58:29.631Z,10.26
2023-04-13T20:00:59.410Z,10.27
2023-04-13T20:03:29.070Z,10.27
2023-04-13T20:06:02.829Z,10.30
2023-04-13T20:08:31.416Z,10.33
2023-04-13T20:10:59.932Z,10.34
2023-04-13T20:13:30.599Z,10.35
2023-04-13T20:15:59.031Z,10.34
2023-04-13T20:18:26.898Z,10.31
2023-04-13T20:20:55.503Z,10.29
2023-04-13T20:23:23.816Z,10.29
2023-04-13T20:25:52.943Z,10.31
2023-04-13T20:28:21.492Z,10.33
2023-04-13T20:30:49.639Z,10.35
2023-04-13T20:33:19.084Z,10.36
2023-04-13T20:35:47.009Z,10.35
2023-04-13T20:38:15.017Z,10.34
2023-04-13T20:40:45.814Z,10.34
2023-04-13T20:43:15.679Z,10.34
2023-04-13T20:45:45.533Z,10.33
2023-04-13T20:50:47.919Z,10.30
2023-04-13T20:53:17.413Z,10.31
2023-04-13T20:55:45.743Z,10.29
2023-04-13T20:58:13.681Z,10.28
2023-04-13T21:00:43.615Z,10.25
2023-04-13T21:03:13.114Z,10.23
2023-04-13T21:05:41.317Z,10.20
2023-04-13T21:08:09.040Z,10.18
2023-04-13T21:10:38.297Z,10.17
2023-04-13T21:13:10.467Z,10.21
2023-04-13T21:15:38.437Z,10.19
2023-04-13T21:18:07.110Z,10.18
2023-04-13T21:20:35.366Z,10.15
2023-04-13T21:23:03.561Z,10.12
2023-04-13T21:25:31.765Z,10.14
2023-04-13T21:28:00.186Z,10.15
2023-04-13T21:30:28.253Z,10.16
2023-04-13T21:32:57.229Z,10.14
2023-04-13T21:35:25.180Z,10.11
2023-04-13T21:37:53.016Z,10.08
2023-04-13T21:40:24.261Z,10.08
2023-04-13T21:42:52.292Z,10.08
2023-04-13T21:45:20.755Z,10.08
2023-04-13T21:47:48.688Z,10.08
2023-04-13T21:50:16.632Z,10.08
2023-04-13T21:52:44.392Z,10.07
2023-04-13T21:55:17.842Z,10.07
2023-04-13T21:57:46.134Z,10.08
2023-04-13T22:00:14.838Z,10.08
2023-04-13T22:02:43.361Z,10.08
2023-04-13T22:05:11.502Z,10.05
2023-04-13T22:07:47.291Z,10.01
2023-04-13T22:10:15.056Z,10.00
2023-04-13T22:12:43.467Z,9.99
2023-04-13T22:15:15.048Z,9.97
2023-04-13T22:17:43.272Z,9.95
2023-04-13T22:20:11.644Z,9.93
2023-04-13T22:22:39.598Z,9.91
2023-04-13T22:25:07.870Z,9.90
2023-04-13T22:27:38.764Z,9.89
2023-04-13T22:30:07.457Z,9.87
2023-04-13T22:32:37.153Z,9.85
2023-04-13T22:35:06.135Z,9.86
2023-04-13T22:37:35.512Z,9.85
2023-04-13T22:40:03.752Z,9.84
2023-04-13T22:42:32.121Z,9.84
2023-04-13T22:45:01.002Z,9.84
2023-04-13T22:47:29.598Z,9.84
2023-04-13T22:50:00.781Z,9.83
2023-04-13T22:52:32.169Z,9.79
2023-04-13T22:55:00.881Z,9.74
2023-04-13T22:57:28.897Z,9.69
2023-04-13T22:59:57.156Z,9.66
2023-04-13T23:02:25.150Z,9.63
2023-04-13T23:04:53.318Z,9.62
2023-04-13T23:07:21.556Z,9.57
2023-04-13T23:09:51.138Z,9.52
2023-04-13T23:12:19.197Z,9.48
2023-04-13T23:14:47.068Z,9.46
2023-04-13T23:17:16.582Z,9.45
2023-04-13T23:19:44.773Z,9.42
2023-04-13T23:22:12.712Z,9.39
2023-04-13T23:24:41.146Z,9.35
2023-04-13T23:27:08.998Z,9.30
2023-04-13T23:29:36.939Z,9.26
2023-04-13T23:32:06.888Z,9.24
2023-04-13T23:34:35.789Z,9.23
2023-04-13T23:37:03.744Z,9.23
2023-04-13T23:39:32.738Z,9.22
2023-04-13T23:42:00.779Z,9.18
2023-04-13T23:44:28.985Z,9.16
2023-04-13T23:46:57.168Z,9.17
2023-04-13T23:49:24.941Z,9.13
2023-04-13T23:51:56.449Z,9.10
2023-04-13T23:54:24.188Z,9.10
2023-04-13T23:56:51.943Z,9.08
2023-04-13T23:59:19.860Z,9.10
